Time;durP1;ratioP1;P1;durP2;ratioP2;P2;SDS_P1;SDS_P2;PMS_P1;PMS_P2;Temp;Humidity;BMP_temperature;BMP_pressure;BME280_temperature;BME280_humidity;BME280_pressure;Samples;Min_cycle;Max_cycle;Signal;HPM_P1;HPM_P2
2021/12/08 00:01:21;;;;;;;26.23;17.10;;;1.20;99.90;;;;;;5028210;28;20699;-70
2021/12/08 00:03:49;;;;;;;28.97;18.13;;;1.20;99.90;;;;;;5028282;28;20259;-70
2021/12/08 00:06:15;;;;;;;24.13;15.90;;;1.20;99.90;;;;;;5028078;28;20213;-70
2021/12/08 00:08:49;;;;;;;28.00;16.50;;;1.20;99.90;;;;;;5028140;28;20209;-70
2021/12/08 00:14:00;;;;;;;27.00;16.57;;;1.10;99.90;;;;;;5027821;28;20591;-70
2021/12/08 00:16:26;;;;;;;26.30;17.33;;;1.20;99.90;;;;;;5027833;28;20672;-70
2021/12/08 00:18:57;;;;;;;25.00;16.43;;;1.10;99.90;;;;;;5028146;28;20266;-70
2021/12/08 00:21:27;;;;;;;25.40;15.87;;;1.20;99.90;;;;;;5028157;28;20220;-70
2021/12/08 00:23:55;;;;;;;25.97;16.73;;;1.10;99.90;;;;;;5027939;28;20219;-70
2021/12/08 00:26:22;;;;;;;26.90;16.63;;;1.10;99.90;;;;;;5027456;28;20279;-70
2021/12/08 00:28:48;;;;;;;26.67;16.73;;;1.20;99.90;;;;;;5027308;28;20270;-71
2021/12/08 00:31:15;;;;;;;25.63;16.03;;;1.10;99.90;;;;;;5028165;28;20205;-71
2021/12/08 00:33:42;;;;;;;24.47;16.90;;;1.10;99.90;;;;;;5028198;28;20220;-70
2021/12/08 00:36:13;;;;;;;25.87;16.87;;;1.10;99.90;;;;;;5028126;28;20217;-71
2021/12/08 00:38:39;;;;;;;26.70;16.67;;;1.10;99.90;;;;;;5029366;28;20225;-71
2021/12/08 00:41:09;;;;;;;24.17;16.30;;;1.10;99.90;;;;;;5032228;28;20263;-71
2021/12/08 00:43:35;;;;;;;26.43;16.90;;;1.10;99.90;;;;;;5031897;28;20208;-71
2021/12/08 00:46:06;;;;;;;28.13;16.77;;;1.10;99.90;;;;;;5032058;28;20262;-71
2021/12/08 00:48:33;;;;;;;24.77;15.03;;;1.10;99.90;;;;;;5031845;28;20254;-70
2021/12/08 00:51:00;;;;;;;25.93;16.27;;;1.00;99.90;;;;;;5031786;28;20262;-70
2021/12/08 00:53:26;;;;;;;23.30;16.10;;;1.00;99.90;;;;;;5031073;28;20719;-70
2021/12/08 00:55:53;;;;;;;24.87;16.33;;;1.10;99.90;;;;;;5031776;28;20235;-70
2021/12/08 00:58:21;;;;;;;22.43;15.07;;;1.10;99.90;;;;;;5031205;28;20212;-70
2021/12/08 01:00:51;;;;;;;26.63;15.73;;;1.00;99.90;;;;;;5031646;28;20271;-70
2021/12/08 01:03:18;;;;;;;24.17;16.70;;;1.10;99.90;;;;;;5031207;28;20717;-70
2021/12/08 01:05:48;;;;;;;26.73;16.03;;;1.10;99.90;;;;;;5030603;28;20209;-70
2021/12/08 01:08:15;;;;;;;23.50;14.70;;;1.10;99.90;;;;;;5030221;28;20212;-70
2021/12/08 01:10:43;;;;;;;26.33;15.43;;;1.00;99.90;;;;;;5029889;28;20209;-70
2021/12/08 01:13:13;;;;;;;24.30;15.63;;;1.00;99.90;;;;;;5029986;28;20209;-70
2021/12/08 01:15:44;;;;;;;22.70;14.90;;;1.00;99.90;;;;;;5029741;28;20745;-70
2021/12/08 01:18:11;;;;;;;26.17;16.40;;;1.00;99.90;;;;;;5030157;28;20255;-71
2021/12/08 01:20:37;;;;;;;22.90;15.27;;;1.00;99.90;;;;;;5030972;28;20212;-71
2021/12/08 01:23:05;;;;;;;21.40;14.47;;;1.00;99.90;;;;;;5031182;28;20275;-71
2021/12/08 01:25:32;;;;;;;21.50;15.37;;;1.00;99.90;;;;;;5031140;28;20266;-71
2021/12/08 01:27:59;;;;;;;24.97;15.63;;;1.00;99.90;;;;;;5030742;28;20657;-71
2021/12/08 01:30:26;;;;;;;24.13;15.33;;;1.00;99.90;;;;;;5031147;28;20208;-71
2021/12/08 01:32:55;;;;;;;25.17;15.37;;;1.00;99.90;;;;;;5031435;28;20216;-71
2021/12/08 01:35:22;;;;;;;22.57;15.10;;;1.00;99.90;;;;;;5030906;28;20237;-71
2021/12/08 01:37:49;;;;;;;22.00;14.77;;;1.00;99.90;;;;;;5030968;28;20278;-71
2021/12/08 01:40:16;;;;;;;22.27;15.30;;;1.00;99.90;;;;;;5030932;28;20205;-71
2021/12/08 01:42:46;;;;;;;21.63;15.07;;;1.00;99.90;;;;;;5030911;28;20622;-71
2021/12/08 01:47:58;;;;;;;23.57;15.13;;;1.00;99.90;;;;;;5021761;28;20204;-71
2021/12/08 01:50:26;;;;;;;24.03;15.53;;;1.00;99.90;;;;;;5029402;28;20812;-71
2021/12/08 01:52:53;;;;;;;24.13;15.30;;;1.00;99.90;;;;;;5030661;28;20289;-70
2021/12/08 01:55:19;;;;;;;25.30;15.63;;;1.00;99.90;;;;;;5030421;28;20297;-70
2021/12/08 01:57:46;;;;;;;23.90;15.43;;;1.00;99.90;;;;;;5030439;28;20857;-70
2021/12/08 02:00:18;;;;;;;25.63;15.57;;;1.00;99.90;;;;;;5030279;28;20224;-70
2021/12/08 02:02:45;;;;;;;24.37;15.37;;;0.90;99.90;;;;;;5030417;28;20263;-70
2021/12/08 02:05:13;;;;;;;24.57;14.97;;;0.90;99.90;;;;;;5030266;28;20258;-70
2021/12/08 02:07:40;;;;;;;22.30;14.50;;;0.90;99.90;;;;;;5030553;28;20223;-70
2021/12/08 02:10:08;;;;;;;25.30;15.70;;;0.90;99.90;;;;;;5030555;28;20216;-70
2021/12/08 02:12:38;;;;;;;19.47;13.50;;;0.90;99.90;;;;;;5030284;28;20281;-71
2021/12/08 02:15:07;;;;;;;23.90;15.30;;;0.90;99.90;;;;;;5016387;28;20688;-70
2021/12/08 02:17:33;;;;;;;24.30;15.50;;;0.90;99.90;;;;;;5009952;28;20209;-70
2021/12/08 02:20:01;;;;;;;23.57;15.13;;;0.90;99.90;;;;;;5010425;28;20279;-70
2021/12/08 02:22:30;;;;;;;22.17;14.33;;;0.90;99.90;;;;;;5010385;28;20263;-70
2021/12/08 02:24:56;;;;;;;21.97;15.17;;;0.90;99.90;;;;;;5010174;28;20291;-70
2021/12/08 02:27:23;;;;;;;21.13;14.10;;;0.90;99.90;;;;;;5010323;28;20287;-71
2021/12/08 02:29:56;;;;;;;22.50;15.17;;;0.90;99.90;;;;;;5010014;28;20256;-70
2021/12/08 02:46:39;;;;;;;23.53;14.80;;;0.90;99.90;;;;;;5010368;28;20611;-70
2021/12/08 02:49:03;;;;;;;20.97;14.07;;;0.80;99.90;;;;;;5009849;28;20324;-70
2021/12/08 02:51:30;;;;;;;22.33;14.27;;;0.80;99.90;;;;;;5009631;28;20252;-70
2021/12/08 02:54:00;;;;;;;20.73;13.67;;;0.80;99.90;;;;;;5009786;28;20611;-70
2021/12/08 02:56:27;;;;;;;22.57;14.30;;;0.80;99.90;;;;;;5009677;28;20213;-71
2021/12/08 02:58:53;;;;;;;23.97;14.27;;;0.80;99.90;;;;;;5009804;28;20206;-70
2021/12/08 03:01:20;;;;;;;20.73;13.60;;;0.80;99.90;;;;;;5009221;28;20259;-70
2021/12/08 03:03:47;;;;;;;23.07;13.47;;;0.80;99.90;;;;;;5009295;28;20726;-70
2021/12/08 03:06:13;;;;;;;20.57;14.13;;;0.80;99.90;;;;;;5009527;28;20213;-70
2021/12/08 03:08:40;;;;;;;22.23;14.17;;;0.80;99.90;;;;;;5009643;28;20213;-70
2021/12/08 03:11:09;;;;;;;25.23;15.20;;;0.80;99.90;;;;;;5009481;28;20618;-70
2021/12/08 03:13:39;;;;;;;20.40;14.20;;;0.80;99.90;;;;;;5009349;28;20632;-71
2021/12/08 03:16:09;;;;;;;22.57;14.63;;;0.80;99.90;;;;;;5009656;28;20713;-71
2021/12/08 03:18:38;;;;;;;20.90;14.30;;;0.80;99.90;;;;;;5009497;28;20213;-72
2021/12/08 03:21:10;;;;;;;21.97;14.67;;;0.80;99.90;;;;;;5024330;28;20694;-70
2021/12/08 03:23:48;;;;;;;23.37;14.20;;;0.80;99.90;;;;;;5028615;28;20212;-70
2021/12/08 03:26:19;;;;;;;24.30;14.83;;;0.90;99.90;;;;;;5028798;28;20292;-70
2021/12/08 03:28:57;;;;;;;19.30;13.97;;;0.90;99.90;;;;;;5008010;28;20291;-70
2021/12/08 03:31:30;;;;;;;19.43;13.97;;;0.80;99.90;;;;;;5005192;28;20381;-70
2021/12/08 03:33:56;;;;;;;23.20;14.43;;;0.80;99.90;;;;;;5005044;28;20664;-70
2021/12/08 03:36:23;;;;;;;20.00;14.20;;;0.80;99.90;;;;;;5005206;28;20209;-70
2021/12/08 03:38:50;;;;;;;21.30;14.20;;;0.80;99.90;;;;;;5005411;28;20529;-70
2021/12/08 03:41:18;;;;;;;22.07;13.87;;;0.80;99.90;;;;;;5004860;28;20208;-69
2021/12/08 03:43:45;;;;;;;20.53;13.67;;;0.80;99.90;;;;;;5005078;28;20209;-69
2021/12/08 03:46:16;;;;;;;23.20;14.53;;;0.80;99.90;;;;;;5005011;28;20217;-69
2021/12/08 03:48:47;;;;;;;20.50;13.97;;;0.80;99.90;;;;;;5004875;28;20682;-70
2021/12/08 03:51:14;;;;;;;20.30;13.57;;;0.80;99.90;;;;;;5004725;28;20831;-70
2021/12/08 03:53:41;;;;;;;22.07;14.47;;;0.80;99.90;;;;;;5004777;28;20237;-70
2021/12/08 03:56:08;;;;;;;21.60;13.97;;;0.80;99.90;;;;;;5004997;28;20334;-70
2021/12/08 03:58:37;;;;;;;20.27;13.50;;;0.80;99.90;;;;;;5004993;28;20208;-70
2021/12/08 04:01:12;;;;;;;20.00;13.67;;;0.80;99.90;;;;;;5004829;28;20759;-70
2021/12/08 04:03:40;;;;;;;21.63;13.67;;;0.80;99.90;;;;;;5004997;28;20233;-70
2021/12/08 04:06:24;;;;;;;21.97;14.50;;;0.80;99.90;;;;;;5005150;28;20251;-70
2021/12/08 04:08:56;;;;;;;21.40;13.97;;;0.80;99.90;;;;;;5005355;28;20194;-70
2021/12/08 04:11:22;;;;;;;20.83;14.13;;;0.80;99.90;;;;;;5004841;28;20243;-71
2021/12/08 04:13:56;;;;;;;18.83;13.37;;;0.80;99.90;;;;;;5004383;28;20259;-70
2021/12/08 04:16:28;;;;;;;20.27;14.30;;;0.80;99.90;;;;;;5013790;28;20228;-70
2021/12/08 04:18:57;;;;;;;23.03;14.63;;;0.80;99.90;;;;;;5027096;28;20271;-70
2021/12/08 04:21:24;;;;;;;21.83;14.23;;;0.80;99.90;;;;;;5025817;28;20244;-70
2021/12/08 04:23:52;;;;;;;21.40;14.33;;;0.80;99.90;;;;;;5026599;28;20817;-70
2021/12/08 04:26:21;;;;;;;21.63;14.10;;;0.80;99.90;;;;;;5027771;28;20216;-70
2021/12/08 04:28:50;;;;;;;18.57;12.93;;;0.80;99.90;;;;;;5028050;28;20204;-70
2021/12/08 04:31:20;;;;;;;20.77;14.73;;;0.80;99.90;;;;;;5028108;28;20208;-70
2021/12/08 04:33:52;;;;;;;21.67;14.17;;;0.80;99.90;;;;;;5028243;28;20197;-70
2021/12/08 04:36:19;;;;;;;19.60;13.87;;;0.80;99.90;;;;;;5027798;28;20228;-70
2021/12/08 04:38:50;;;;;;;23.83;14.37;;;0.80;99.90;;;;;;5028279;28;20216;-70
2021/12/08 04:41:24;;;;;;;21.67;14.53;;;0.80;99.90;;;;;;5028052;28;20196;-70
2021/12/08 04:44:02;;;;;;;19.87;13.60;;;0.80;99.90;;;;;;5027607;28;20232;-70
2021/12/08 04:46:50;;;;;;;19.53;14.00;;;0.80;99.90;;;;;;5027849;28;20204;-70
2021/12/08 04:49:35;;;;;;;21.70;14.03;;;0.80;99.90;;;;;;5027759;28;20211;-70
2021/12/08 04:52:08;;;;;;;20.37;13.67;;;0.80;99.90;;;;;;5027645;28;20251;-70
2021/12/08 05:00:40;;;;;;;22.80;14.90;;;0.80;99.90;;;;;;5027406;28;20304;-70
2021/12/08 05:03:24;;;;;;;18.47;13.37;;;0.80;99.90;;;;;;5027584;28;20234;-70
2021/12/08 05:06:19;;;;;;;20.60;14.40;;;0.80;99.90;;;;;;5027456;28;20204;-70
2021/12/08 05:08:48;;;;;;;22.37;13.93;;;0.80;99.90;;;;;;5027719;28;20197;-70
2021/12/08 05:11:20;;;;;;;20.37;14.30;;;0.80;99.90;;;;;;5027395;28;20683;-70
2021/12/08 05:13:49;;;;;;;19.87;13.97;;;0.80;99.90;;;;;;5027660;28;20205;-70
2021/12/08 05:16:18;;;;;;;20.90;14.50;;;0.80;99.90;;;;;;5027557;28;20599;-70
2021/12/08 05:18:48;;;;;;;20.70;13.97;;;0.80;99.90;;;;;;5027650;28;20282;-70
2021/12/08 05:21:19;;;;;;;21.33;13.73;;;0.80;99.90;;;;;;5027163;28;20600;-70
2021/12/08 05:23:51;;;;;;;20.33;14.27;;;0.80;99.90;;;;;;5027656;28;20199;-70
2021/12/08 05:26:21;;;;;;;19.67;13.50;;;0.80;99.90;;;;;;5030799;28;20709;-70
2021/12/08 05:28:49;;;;;;;20.27;13.77;;;0.80;99.90;;;;;;5031296;28;20208;-70
2021/12/08 05:31:21;;;;;;;21.70;13.73;;;0.80;99.90;;;;;;5031042;28;20208;-70
2021/12/08 05:33:48;;;;;;;21.50;14.90;;;0.80;99.90;;;;;;5031430;28;20258;-70
2021/12/08 05:36:16;;;;;;;21.50;13.43;;;0.80;99.90;;;;;;5030910;28;20240;-70
2021/12/08 05:38:44;;;;;;;21.87;13.93;;;0.80;99.90;;;;;;5031438;28;20208;-70
2021/12/08 05:41:16;;;;;;;18.53;14.03;;;0.80;99.90;;;;;;5031098;28;20212;-70
2021/12/08 05:43:45;;;;;;;22.30;14.37;;;0.80;99.90;;;;;;5030838;28;20548;-70
2021/12/08 05:46:12;;;;;;;22.13;13.97;;;0.80;99.90;;;;;;5030877;28;20212;-70
2021/12/08 05:48:41;;;;;;;23.33;15.00;;;0.80;99.90;;;;;;5030167;28;20207;-70
2021/12/08 05:51:10;;;;;;;20.73;14.10;;;0.90;99.90;;;;;;5030809;28;20263;-70
2021/12/08 05:53:39;;;;;;;21.07;13.63;;;0.80;99.90;;;;;;5030671;28;20576;-70
2021/12/08 05:56:10;;;;;;;20.07;14.43;;;0.80;99.90;;;;;;5030633;28;20294;-70
2021/12/08 05:58:38;;;;;;;18.33;13.27;;;0.80;99.90;;;;;;5030537;28;20248;-70
2021/12/08 06:01:12;;;;;;;17.53;13.13;;;0.80;99.90;;;;;;5030412;28;20720;-70
2021/12/08 06:03:41;;;;;;;20.90;13.80;;;0.80;99.90;;;;;;5030502;28;20200;-70
2021/12/08 06:06:09;;;;;;;20.60;13.10;;;0.80;99.90;;;;;;5030585;28;20209;-70
2021/12/08 06:08:36;;;;;;;21.97;13.60;;;0.80;99.90;;;;;;5030326;28;20235;-70
2021/12/08 06:11:08;;;;;;;17.53;12.50;;;0.80;99.90;;;;;;5030596;28;20690;-70
2021/12/08 06:13:35;;;;;;;18.90;13.47;;;0.70;99.90;;;;;;5029820;28;20205;-70
2021/12/08 06:16:11;;;;;;;18.63;13.00;;;0.70;99.90;;;;;;5028296;28;20699;-70
2021/12/08 06:18:40;;;;;;;19.53;12.57;;;0.70;99.90;;;;;;5028750;28;20200;-70
2021/12/08 06:21:12;;;;;;;17.23;12.30;;;0.70;99.90;;;;;;5030032;28;20255;-70
2021/12/08 06:23:41;;;;;;;19.13;13.03;;;0.70;99.90;;;;;;5030073;28;20205;-69
2021/12/08 06:26:10;;;;;;;19.77;11.90;;;0.70;99.90;;;;;;5030344;28;20242;-70
2021/12/08 06:28:37;;;;;;;17.53;11.87;;;0.70;99.90;;;;;;5030286;28;20208;-70
2021/12/08 06:31:08;;;;;;;19.23;12.60;;;0.60;99.90;;;;;;5030023;28;20262;-70
2021/12/08 06:33:37;;;;;;;17.00;12.10;;;0.70;99.90;;;;;;5029747;28;20200;-70
2021/12/08 06:36:11;;;;;;;20.30;12.80;;;0.70;99.90;;;;;;5029215;28;20657;-70
2021/12/08 06:38:39;;;;;;;20.20;13.17;;;0.70;99.90;;;;;;5029998;28;20197;-70
2021/12/08 06:41:12;;;;;;;19.77;13.13;;;0.60;99.90;;;;;;5029857;28;20255;-70
2021/12/08 06:43:44;;;;;;;21.27;13.17;;;0.70;99.90;;;;;;5029525;28;20729;-70
2021/12/08 06:46:12;;;;;;;19.73;12.53;;;0.70;99.90;;;;;;5030037;28;20201;-70
2021/12/08 06:48:42;;;;;;;18.33;12.37;;;0.60;99.90;;;;;;5029763;28;20224;-70
2021/12/08 06:51:14;;;;;;;19.37;12.57;;;0.70;99.90;;;;;;5029694;28;20196;-70
2021/12/08 06:53:44;;;;;;;18.00;12.50;;;0.70;99.90;;;;;;5029206;28;20319;-70
2021/12/08 06:56:15;;;;;;;18.27;12.40;;;0.70;99.90;;;;;;5029589;28;20244;-70
2021/12/08 06:58:47;;;;;;;17.40;13.17;;;0.70;99.90;;;;;;5029325;28;20301;-70
2021/12/08 07:01:22;;;;;;;17.60;12.37;;;0.70;99.90;;;;;;5029232;28;20228;-70
2021/12/08 07:04:07;;;;;;;20.27;13.23;;;0.70;99.90;;;;;;5029439;28;20196;-70
2021/12/08 07:06:46;;;;;;;20.73;13.17;;;0.70;99.90;;;;;;5029316;28;20197;-71
2021/12/08 07:09:18;;;;;;;22.93;13.07;;;0.70;99.90;;;;;;5028991;28;20725;-70
2021/12/08 07:11:45;;;;;;;19.63;13.20;;;0.70;99.90;;;;;;5029317;28;20193;-69
2021/12/08 07:14:16;;;;;;;20.67;13.33;;;0.70;99.90;;;;;;5029175;28;20351;-70
2021/12/08 07:16:48;;;;;;;20.23;13.60;;;0.70;99.90;;;;;;5029165;28;20274;-69
2021/12/08 07:19:22;;;;;;;21.87;14.00;;;0.70;99.90;;;;;;5029032;28;20196;-69
2021/12/08 07:21:52;;;;;;;19.97;13.33;;;0.70;99.90;;;;;;5029163;28;20386;-69
2021/12/08 07:24:22;;;;;;;21.57;13.67;;;0.70;99.90;;;;;;5028859;28;20266;-69
2021/12/08 07:26:56;;;;;;;23.57;14.77;;;0.70;99.90;;;;;;5029181;28;20209;-69
2021/12/08 07:29:25;;;;;;;22.67;15.03;;;0.70;99.90;;;;;;5028733;28;20196;-69
2021/12/08 07:31:55;;;;;;;23.60;13.53;;;0.70;99.90;;;;;;5028900;28;20212;-69
2021/12/08 07:34:23;;;;;;;20.87;13.10;;;0.80;99.90;;;;;;5028502;28;20205;-69
2021/12/08 07:36:55;;;;;;;22.40;13.90;;;0.80;99.90;;;;;;5028626;28;20260;-69
2021/12/08 07:39:26;;;;;;;24.77;14.87;;;0.80;99.90;;;;;;5028849;28;20627;-70
2021/12/08 07:41:57;;;;;;;22.43;14.40;;;0.80;99.90;;;;;;5028768;28;20211;-69
2021/12/08 07:44:24;;;;;;;24.23;14.03;;;0.80;99.90;;;;;;5028419;28;20201;-69
2021/12/08 07:46:59;;;;;;;24.50;14.20;;;0.80;99.90;;;;;;5028710;28;20266;-70
2021/12/08 07:49:30;;;;;;;23.77;13.47;;;0.80;99.90;;;;;;5027857;28;20193;-70
2021/12/08 07:52:03;;;;;;;24.77;14.93;;;0.80;99.90;;;;;;5028252;28;20707;-69
2021/12/08 07:54:32;;;;;;;22.67;14.60;;;0.80;99.90;;;;;;5028311;28;20676;-69
2021/12/08 07:57:07;;;;;;;26.53;15.30;;;0.80;99.90;;;;;;5028294;28;20323;-69
2021/12/08 07:59:35;;;;;;;25.83;14.20;;;0.80;99.90;;;;;;5028324;28;20228;-70
2021/12/08 08:02:07;;;;;;;25.90;15.23;;;0.80;99.90;;;;;;5028388;28;20227;-69
2021/12/08 08:04:35;;;;;;;23.47;14.60;;;0.80;99.90;;;;;;5028359;28;20232;-70
2021/12/08 08:07:06;;;;;;;24.07;14.27;;;0.80;99.90;;;;;;5028322;28;20217;-69
2021/12/08 08:09:38;;;;;;;25.07;14.67;;;0.80;99.90;;;;;;5028283;28;20580;-69
2021/12/08 08:12:09;;;;;;;24.23;14.23;;;0.80;99.90;;;;;;5028391;28;20204;-69
2021/12/08 08:14:39;;;;;;;24.47;14.47;;;0.80;99.90;;;;;;5028128;28;20204;-69
2021/12/08 08:17:07;;;;;;;23.37;14.03;;;0.90;99.90;;;;;;5028248;28;20228;-69
2021/12/08 08:19:39;;;;;;;22.90;14.43;;;0.90;99.90;;;;;;5028079;28;20235;-69
2021/12/08 08:22:10;;;;;;;24.97;14.83;;;0.90;99.90;;;;;;5028308;28;20285;-70
2021/12/08 08:24:37;;;;;;;25.07;14.90;;;0.90;99.90;;;;;;5027888;28;20204;-70
2021/12/08 08:27:08;;;;;;;26.57;14.77;;;0.90;99.90;;;;;;5027897;28;20671;-69
2021/12/08 08:29:36;;;;;;;26.47;15.03;;;0.90;99.90;;;;;;5027804;28;20255;-69
2021/12/08 08:32:06;;;;;;;27.37;15.00;;;0.90;99.90;;;;;;5028191;28;20217;-69
2021/12/08 08:34:38;;;;;;;25.43;14.80;;;0.90;99.90;;;;;;5028059;28;20196;-69
2021/12/08 08:37:13;;;;;;;30.23;15.03;;;0.90;99.90;;;;;;5027727;28;20706;-69
2021/12/08 08:39:44;;;;;;;26.20;14.37;;;0.90;99.90;;;;;;5028313;28;20610;-70
2021/12/08 08:42:16;;;;;;;28.57;15.83;;;0.90;99.90;;;;;;5027973;28;20267;-70
2021/12/08 08:44:45;;;;;;;24.87;14.63;;;0.90;99.90;;;;;;5027967;28;20246;-69
2021/12/08 08:47:16;;;;;;;28.33;15.13;;;0.90;99.90;;;;;;5027803;28;20219;-69
2021/12/08 08:49:44;;;;;;;28.57;15.27;;;0.90;99.90;;;;;;5028019;28;20214;-69
2021/12/08 08:52:17;;;;;;;26.03;14.70;;;1.00;99.90;;;;;;5027389;28;20647;-69
2021/12/08 08:54:47;;;;;;;30.20;15.20;;;1.00;99.90;;;;;;5028058;28;20189;-69
2021/12/08 08:57:17;;;;;;;29.10;15.17;;;0.90;99.90;;;;;;5027571;28;20290;-69
2021/12/08 08:59:48;;;;;;;27.07;15.17;;;0.90;99.90;;;;;;5029019;28;20662;-69
2021/12/08 09:02:18;;;;;;;28.93;14.57;;;0.90;99.90;;;;;;5031483;28;20284;-69
2021/12/08 09:04:49;;;;;;;27.90;14.23;;;1.00;99.90;;;;;;5031655;28;20205;-69
2021/12/08 09:07:23;;;;;;;28.87;14.77;;;1.00;99.90;;;;;;5031492;28;20575;-69
2021/12/08 09:09:51;;;;;;;26.00;14.27;;;1.00;99.90;;;;;;5031452;28;20654;-70
2021/12/08 09:12:28;;;;;;;26.10;14.27;;;1.00;99.90;;;;;;5031440;28;20255;-69
2021/12/08 09:14:58;;;;;;;27.67;14.93;;;1.00;99.90;;;;;;5031436;28;20193;-69
2021/12/08 09:17:30;;;;;;;28.10;15.43;;;1.00;99.90;;;;;;5031498;28;20236;-70
2021/12/08 09:20:01;;;;;;;27.23;15.93;;;1.00;99.90;;;;;;5031470;28;20225;-69
2021/12/08 09:22:33;;;;;;;26.27;15.03;;;1.00;99.90;;;;;;5031000;28;20275;-69
2021/12/08 09:25:16;;;;;;;27.17;14.90;;;1.10;99.90;;;;;;5031323;28;20254;-69
2021/12/08 09:27:47;;;;;;;26.10;14.80;;;1.10;99.90;;;;;;5031099;28;20706;-69
2021/12/08 09:30:18;;;;;;;25.17;15.13;;;1.10;99.90;;;;;;5030841;28;20196;-69
2021/12/08 09:32:48;;;;;;;29.53;15.77;;;1.10;99.90;;;;;;5031232;28;20208;-70
2021/12/08 09:35:19;;;;;;;30.40;16.10;;;1.10;99.90;;;;;;5031048;28;20193;-69
2021/12/08 09:37:56;;;;;;;28.17;14.43;;;1.10;99.90;;;;;;5031189;28;20278;-69
2021/12/08 09:40:32;;;;;;;25.40;15.13;;;1.10;99.90;;;;;;5030818;28;20568;-69
2021/12/08 09:43:06;;;;;;;25.53;14.67;;;1.10;99.90;;;;;;5031046;28;20200;-69
2021/12/08 09:45:36;;;;;;;26.17;15.17;;;1.10;99.90;;;;;;5030647;28;20192;-69
2021/12/08 09:48:04;;;;;;;27.20;15.53;;;1.10;99.90;;;;;;5031286;28;20250;-69
2021/12/08 09:50:32;;;;;;;29.37;15.67;;;1.10;99.90;;;;;;5030853;28;20677;-69
2021/12/08 09:53:00;;;;;;;29.57;15.27;;;1.10;99.90;;;;;;5030646;28;20306;-69
2021/12/08 09:55:27;;;;;;;28.57;15.43;;;1.10;99.90;;;;;;5030590;28;20213;-69
2021/12/08 09:57:54;;;;;;;25.93;14.40;;;1.20;99.90;;;;;;5030662;28;20299;-69
2021/12/08 10:00:24;;;;;;;28.13;15.67;;;1.20;99.90;;;;;;5030217;28;20229;-70
2021/12/08 10:02:56;;;;;;;26.30;15.07;;;1.20;99.90;;;;;;5030523;28;20568;-69
2021/12/08 10:05:25;;;;;;;27.87;15.20;;;1.10;99.90;;;;;;5030098;28;20608;-70
2021/12/08 10:07:52;;;;;;;29.97;15.23;;;1.20;99.90;;;;;;5030295;28;20335;-69
2021/12/08 10:10:20;;;;;;;32.47;16.33;;;1.20;99.90;;;;;;5030222;28;20209;-69
2021/12/08 10:12:47;;;;;;;26.33;15.33;;;1.20;99.90;;;;;;5029631;28;20619;-70
2021/12/08 10:15:17;;;;;;;25.20;15.13;;;1.20;99.90;;;;;;5030110;28;20204;-69
2021/12/08 10:17:45;;;;;;;28.97;15.37;;;1.30;99.90;;;;;;5030318;28;20236;-69
2021/12/08 10:20:17;;;;;;;25.70;15.30;;;1.20;99.90;;;;;;5030425;28;20611;-69
2021/12/08 10:22:47;;;;;;;25.40;15.63;;;1.20;99.90;;;;;;5030371;28;20193;-69
2021/12/08 10:25:16;;;;;;;28.37;15.23;;;1.30;99.90;;;;;;5030102;28;20197;-70
2021/12/08 10:28:08;;;;;;;27.53;16.67;;;1.30;99.90;;;;;;5030303;28;20209;-69
2021/12/08 10:30:41;;;;;;;29.90;16.93;;;1.40;99.90;;;;;;5029654;28;20246;-69
2021/12/08 10:33:12;;;;;;;26.57;15.33;;;1.30;99.90;;;;;;5030094;28;20281;-69
2021/12/08 10:35:47;;;;;;;26.87;15.47;;;1.40;99.90;;;;;;5030135;28;20225;-69
2021/12/08 10:38:16;;;;;;;30.17;15.57;;;1.40;99.90;;;;;;5029823;28;20270;-69
2021/12/08 10:40:57;;;;;;;29.30;15.93;;;1.40;99.90;;;;;;5030021;28;20299;-70
2021/12/08 10:43:25;;;;;;;25.97;15.13;;;1.50;99.90;;;;;;5029463;28;20197;-70
2021/12/08 10:46:11;;;;;;;28.07;16.00;;;1.50;99.90;;;;;;5029494;28;20217;-69
2021/12/08 10:48:44;;;;;;;25.10;16.27;;;1.50;99.90;;;;;;5029764;28;20196;-69
2021/12/08 10:54:26;;;;;;;24.30;15.00;;;1.60;99.90;;;;;;5004455;28;20200;-69
2021/12/08 10:56:56;;;;;;;29.33;15.70;;;1.60;99.90;;;;;;5029853;28;20232;-69
2021/12/08 10:59:26;;;;;;;27.67;15.20;;;1.70;99.90;;;;;;5029330;28;20193;-69
2021/12/08 11:01:53;;;;;;;29.33;16.87;;;1.70;99.90;;;;;;5029730;28;20236;-69
2021/12/08 11:04:30;;;;;;;23.80;14.90;;;1.70;99.90;;;;;;5029239;28;20429;-69
2021/12/08 11:07:05;;;;;;;29.17;16.47;;;1.70;99.90;;;;;;5029479;28;20193;-69
2021/12/08 11:09:40;;;;;;;27.43;16.30;;;1.80;99.90;;;;;;5029260;28;20193;-69
2021/12/08 11:12:07;;;;;;;26.17;15.73;;;1.80;99.90;;;;;;5029313;28;20636;-69
2021/12/08 11:14:47;;;;;;;28.40;16.43;;;1.80;99.90;;;;;;5029034;28;20256;-70
2021/12/08 11:17:28;;;;;;;27.60;15.77;;;1.80;99.90;;;;;;5029137;28;20279;-69
2021/12/08 11:20:17;;;;;;;29.17;17.17;;;1.80;99.90;;;;;;5029157;28;20224;-70
2021/12/08 11:22:44;;;;;;;28.00;16.17;;;1.70;99.90;;;;;;5028845;28;20239;-70
2021/12/08 11:25:21;;;;;;;26.03;15.83;;;1.70;99.90;;;;;;5028904;28;20676;-69
2021/12/08 11:27:48;;;;;;;26.13;15.60;;;1.70;99.90;;;;;;5029192;28;20250;-70
2021/12/08 11:30:22;;;;;;;29.23;15.93;;;1.70;99.90;;;;;;5028713;28;20255;-69
2021/12/08 11:32:48;;;;;;;25.70;16.43;;;1.70;99.90;;;;;;5028882;28;20197;-69
2021/12/08 11:35:20;;;;;;;27.90;15.73;;;1.70;99.90;;;;;;5028666;28;20228;-70
2021/12/08 11:37:58;;;;;;;28.07;15.63;;;1.70;99.90;;;;;;5028518;28;20720;-69
2021/12/08 11:40:24;;;;;;;25.60;15.13;;;1.70;99.90;;;;;;5028559;28;20200;-70
2021/12/08 11:42:51;;;;;;;25.97;16.20;;;1.70;99.90;;;;;;5028569;28;20729;-70
2021/12/08 11:45:20;;;;;;;30.17;16.17;;;1.70;99.90;;;;;;5028521;28;20200;-70
2021/12/08 11:47:46;;;;;;;25.43;15.57;;;1.70;99.90;;;;;;5028735;28;20209;-69
2021/12/08 11:50:16;;;;;;;25.93;15.77;;;1.70;99.90;;;;;;5028655;28;20209;-69
2021/12/08 11:52:43;;;;;;;25.23;15.47;;;1.70;99.90;;;;;;5028217;28;20248;-70
2021/12/08 11:55:13;;;;;;;25.43;15.73;;;1.70;99.90;;;;;;5028518;28;20314;-69
2021/12/08 11:57:44;;;;;;;27.07;15.70;;;1.70;99.90;;;;;;5028521;28;20287;-69
2021/12/08 12:00:14;;;;;;;26.33;15.70;;;1.70;99.90;;;;;;5028458;28;20232;-70
2021/12/08 12:02:45;;;;;;;25.23;14.77;;;1.70;99.90;;;;;;5028499;28;20560;-69
2021/12/08 12:05:15;;;;;;;26.97;15.93;;;1.70;99.90;;;;;;5028328;28;20580;-69
2021/12/08 12:07:43;;;;;;;25.77;15.00;;;1.70;99.90;;;;;;5028598;28;20212;-70
2021/12/08 12:10:12;;;;;;;25.90;15.47;;;1.70;99.90;;;;;;5028446;28;20204;-69
2021/12/08 12:12:41;;;;;;;24.17;15.13;;;1.70;99.90;;;;;;5028342;28;20626;-70
2021/12/08 12:15:10;;;;;;;26.83;15.63;;;1.70;99.90;;;;;;5028147;28;20204;-70
2021/12/08 12:17:37;;;;;;;25.80;15.03;;;1.70;99.90;;;;;;5028016;28;20233;-70
2021/12/08 12:20:08;;;;;;;29.97;15.97;;;1.70;99.90;;;;;;5028024;28;20232;-70
2021/12/08 12:22:42;;;;;;;27.90;16.33;;;1.70;99.90;;;;;;5027944;28;20200;-70
2021/12/08 12:25:29;;;;;;;27.17;15.83;;;1.80;99.90;;;;;;5027886;28;20221;-69
2021/12/08 12:28:13;;;;;;;26.87;15.67;;;1.80;99.90;;;;;;5028332;28;20201;-70
2021/12/08 12:30:48;;;;;;;26.23;14.93;;;1.80;99.90;;;;;;5027755;28;20640;-70
2021/12/08 12:33:17;;;;;;;26.97;15.73;;;1.80;99.90;;;;;;5027808;28;20652;-70
2021/12/08 12:35:51;;;;;;;26.17;15.67;;;1.80;99.90;;;;;;5031071;28;20572;-70
2021/12/08 12:38:18;;;;;;;23.00;15.13;;;1.80;99.90;;;;;;5032224;28;20277;-69
2021/12/08 12:40:47;;;;;;;25.67;15.47;;;1.80;99.90;;;;;;5031888;28;21005;-69
2021/12/08 12:43:24;;;;;;;25.73;14.67;;;1.80;99.90;;;;;;5031993;28;20204;-70
2021/12/08 12:46:10;;;;;;;28.07;15.17;;;1.80;99.90;;;;;;5031764;28;20822;-69
2021/12/08 12:48:37;;;;;;;26.27;15.13;;;1.80;99.90;;;;;;5031990;28;20203;-69
2021/12/08 12:51:11;;;;;;;29.00;15.43;;;1.80;99.90;;;;;;5031908;28;20636;-70
2021/12/08 12:53:43;;;;;;;26.37;14.73;;;1.80;99.90;;;;;;5031546;28;20232;-69
2021/12/08 12:56:13;;;;;;;27.47;15.80;;;1.80;99.90;;;;;;5032155;28;20554;-70
2021/12/08 12:58:58;;;;;;;25.50;15.03;;;1.80;99.90;;;;;;5031940;28;20258;-70
2021/12/08 13:01:27;;;;;;;24.40;15.33;;;1.70;99.90;;;;;;5031885;28;20203;-70
2021/12/08 13:03:57;;;;;;;25.43;15.03;;;1.80;99.90;;;;;;5031858;28;20216;-69
2021/12/08 13:06:45;;;;;;;26.37;15.13;;;1.80;99.90;;;;;;5031060;28;20754;-70
2021/12/08 13:09:41;;;;;;;25.20;14.93;;;1.80;99.90;;;;;;5031664;28;20239;-70
2021/12/08 13:12:10;;;;;;;27.07;15.10;;;1.80;99.90;;;;;;5031284;28;20663;-70
2021/12/08 13:14:37;;;;;;;26.10;14.40;;;1.80;99.90;;;;;;5031262;28;20212;-70
2021/12/08 13:17:20;;;;;;;24.87;14.53;;;1.80;99.90;;;;;;5031412;28;20240;-69
2021/12/08 13:19:48;;;;;;;28.00;14.80;;;1.80;99.90;;;;;;5031189;28;20719;-69
2021/12/08 13:22:51;;;;;;;28.47;15.40;;;1.80;99.90;;;;;;5031026;28;20660;-70